sensor_id;sensor_type;location;lat;lon;timestamp;temperature;humidity
44886;DHT22;36669;51.428;21.162;2023-05-10T00:00:17;7.00;99.90
44886;DHT22;36669;51.428;21.162;2023-05-10T00:02:43;6.90;99.90
44886;DHT22;36669;51.428;21.162;2023-05-10T00:05:09;6.90;99.90
44886;DHT22;36669;51.428;21.162;2023-05-10T00:07:35;6.90;99.90
44886;DHT22;36669;51.428;21.162;2023-05-10T00:10:02;6.80;99.90
44886;DHT22;36669;51.428;21.162;2023-05-10T00:12:28;6.80;99.90
44886;DHT22;36669;51.428;21.162;2023-05-10T00:14:55;6.70;99.90
44886;DHT22;36669;51.428;21.162;2023-05-10T00:17:22;6.60;99.90
44886;DHT22;36669;51.428;21.162;2023-05-10T00:19:49;6.60;99.90
44886;DHT22;36669;51.428;21.162;2023-05-10T00:22:14;6.60;99.90
44886;DHT22;36669;51.428;21.162;2023-05-10T00:24:41;6.50;99.90
44886;DHT22;36669;51.428;21.162;2023-05-10T00:27:08;6.50;99.90
44886;DHT22;36669;51.428;21.162;2023-05-10T00:29:35;6.40;99.90
44886;DHT22;36669;51.428;21.162;2023-05-10T00:32:02;6.40;99.90
44886;DHT22;36669;51.428;21.162;2023-05-10T00:34:28;6.50;99.90
44886;DHT22;36669;51.428;21.162;2023-05-10T00:36:54;6.40;99.90
44886;DHT22;36669;51.428;21.162;2023-05-10T00:39:20;6.40;99.90
44886;DHT22;36669;51.428;21.162;2023-05-10T00:41:47;6.40;99.90
44886;DHT22;36669;51.428;21.162;2023-05-10T00:44:14;6.40;99.90
44886;DHT22;36669;51.428;21.162;2023-05-10T00:46:41;6.40;99.90
44886;DHT22;36669;51.428;21.162;2023-05-10T00:49:07;6.30;99.90
44886;DHT22;36669;51.428;21.162;2023-05-10T00:51:34;6.20;99.90
44886;DHT22;36669;51.428;21.162;2023-05-10T00:54:00;6.20;99.90
44886;DHT22;36669;51.428;21.162;2023-05-10T00:56:26;6.20;99.90
44886;DHT22;36669;51.428;21.162;2023-05-10T00:58:53;6.10;99.90
44886;DHT22;36669;51.428;21.162;2023-05-10T01:01:20;6.10;99.90
44886;DHT22;36669;51.428;21.162;2023-05-10T01:03:46;6.00;99.90
44886;DHT22;36669;51.428;21.162;2023-05-10T01:06:13;6.00;99.90
44886;DHT22;36669;51.428;21.162;2023-05-10T01:08:39;5.90;99.90
44886;DHT22;36669;51.428;21.162;2023-05-10T01:11:06;5.90;99.90
44886;DHT22;36669;51.428;21.162;2023-05-10T01:13:37;5.90;99.90
44886;DHT22;36669;51.428;21.162;2023-05-10T01:16:04;5.90;99.90
44886;DHT22;36669;51.428;21.162;2023-05-10T01:18:40;5.80;99.90
44886;DHT22;36669;51.428;21.162;2023-05-10T01:21:23;5.80;99.90
44886;DHT22;36669;51.428;21.162;2023-05-10T01:24:28;5.80;99.90
44886;DHT22;36669;51.428;21.162;2023-05-10T01:32:00;5.70;99.90
44886;DHT22;36669;51.428;21.162;2023-05-10T01:34:35;5.70;99.90
44886;DHT22;36669;51.428;21.162;2023-05-10T01:37:12;5.70;99.90
44886;DHT22;36669;51.428;21.162;2023-05-10T01:39:57;5.60;99.90
44886;DHT22;36669;51.428;21.162;2023-05-10T01:42:25;5.60;99.90
44886;DHT22;36669;51.428;21.162;2023-05-10T01:44:55;5.60;99.90
44886;DHT22;36669;51.428;21.162;2023-05-10T01:50:10;5.50;99.90
44886;DHT22;36669;51.428;21.162;2023-05-10T01:52:38;5.40;99.90
44886;DHT22;36669;51.428;21.162;2023-05-10T01:55:06;5.40;99.90
44886;DHT22;36669;51.428;21.162;2023-05-10T01:57:36;5.40;99.90
44886;DHT22;36669;51.428;21.162;2023-05-10T02:00:03;5.30;99.90
44886;DHT22;36669;51.428;21.162;2023-05-10T02:02:29;5.30;99.90
44886;DHT22;36669;51.428;21.162;2023-05-10T02:04:55;5.30;99.90
44886;DHT22;36669;51.428;21.162;2023-05-10T02:07:23;5.30;99.90
44886;DHT22;36669;51.428;21.162;2023-05-10T02:09:50;5.20;99.90
44886;DHT22;36669;51.428;21.162;2023-05-10T02:12:16;5.20;99.90
44886;DHT22;36669;51.428;21.162;2023-05-10T02:14:44;5.20;99.90
44886;DHT22;36669;51.428;21.162;2023-05-10T02:17:11;5.20;99.90
44886;DHT22;36669;51.428;21.162;2023-05-10T02:19:38;5.20;99.90
44886;DHT22;36669;51.428;21.162;2023-05-10T02:22:06;5.10;99.90
44886;DHT22;36669;51.428;21.162;2023-05-10T02:24:33;5.10;99.90
44886;DHT22;36669;51.428;21.162;2023-05-10T02:27:01;5.10;99.90
44886;DHT22;36669;51.428;21.162;2023-05-10T02:29:27;5.20;99.90
44886;DHT22;36669;51.428;21.162;2023-05-10T02:31:54;5.10;99.90
44886;DHT22;36669;51.428;21.162;2023-05-10T02:34:21;5.10;99.90
44886;DHT22;36669;51.428;21.162;2023-05-10T02:36:50;5.00;99.90
44886;DHT22;36669;51.428;21.162;2023-05-10T02:39:18;5.00;99.90
44886;DHT22;36669;51.428;21.162;2023-05-10T02:41:45;4.90;99.90
44886;DHT22;36669;51.428;21.162;2023-05-10T02:44:11;4.90;99.90
44886;DHT22;36669;51.428;21.162;2023-05-10T02:46:38;4.90;99.90
44886;DHT22;36669;51.428;21.162;2023-05-10T02:49:05;4.90;99.90
44886;DHT22;36669;51.428;21.162;2023-05-10T02:51:34;4.90;99.90
44886;DHT22;36669;51.428;21.162;2023-05-10T02:54:03;4.90;99.90
44886;DHT22;36669;51.428;21.162;2023-05-10T02:56:34;4.80;99.90
44886;DHT22;36669;51.428;21.162;2023-05-10T02:59:01;4.80;99.90
44886;DHT22;36669;51.428;21.162;2023-05-10T03:01:27;4.80;99.90
44886;DHT22;36669;51.428;21.162;2023-05-10T03:03:54;4.80;99.90
44886;DHT22;36669;51.428;21.162;2023-05-10T03:06:21;4.80;99.90
44886;DHT22;36669;51.428;21.162;2023-05-10T03:08:48;4.80;99.90
44886;DHT22;36669;51.428;21.162;2023-05-10T03:13:44;4.80;99.90
44886;DHT22;36669;51.428;21.162;2023-05-10T03:16:22;4.80;99.90
44886;DHT22;36669;51.428;21.162;2023-05-10T03:19:12;4.80;99.90
44886;DHT22;36669;51.428;21.162;2023-05-10T03:21:41;4.80;99.90
44886;DHT22;36669;51.428;21.162;2023-05-10T03:24:09;4.80;99.90
44886;DHT22;36669;51.428;21.162;2023-05-10T03:26:38;4.80;99.90
44886;DHT22;36669;51.428;21.162;2023-05-10T03:29:06;4.90;99.90
44886;DHT22;36669;51.428;21.162;2023-05-10T03:31:34;4.90;99.90
44886;DHT22;36669;51.428;21.162;2023-05-10T03:34:01;4.80;99.90
44886;DHT22;36669;51.428;21.162;2023-05-10T03:36:28;4.80;99.90
44886;DHT22;36669;51.428;21.162;2023-05-10T03:38:54;4.90;99.90
44886;DHT22;36669;51.428;21.162;2023-05-10T03:41:20;4.90;99.90
44886;DHT22;36669;51.428;21.162;2023-05-10T03:43:47;4.90;99.90
44886;DHT22;36669;51.428;21.162;2023-05-10T03:46:14;5.00;99.90
44886;DHT22;36669;51.428;21.162;2023-05-10T03:48:41;5.00;99.90
44886;DHT22;36669;51.428;21.162;2023-05-10T03:51:06;5.10;99.90
44886;DHT22;36669;51.428;21.162;2023-05-10T03:53:33;5.10;99.90
44886;DHT22;36669;51.428;21.162;2023-05-10T03:56:02;5.10;99.90
44886;DHT22;36669;51.428;21.162;2023-05-10T03:58:29;5.20;99.90
44886;DHT22;36669;51.428;21.162;2023-05-10T04:00:55;5.30;99.90
44886;DHT22;36669;51.428;21.162;2023-05-10T04:03:22;5.30;99.90
44886;DHT22;36669;51.428;21.162;2023-05-10T04:05:57;5.40;99.90
44886;DHT22;36669;51.428;21.162;2023-05-10T04:08:24;5.50;99.90
44886;DHT22;36669;51.428;21.162;2023-05-10T04:10:49;5.60;99.90
44886;DHT22;36669;51.428;21.162;2023-05-10T04:13:16;5.60;99.90
44886;DHT22;36669;51.428;21.162;2023-05-10T04:15:41;5.70;99.90
44886;DHT22;36669;51.428;21.162;2023-05-10T04:18:09;5.80;99.90
44886;DHT22;36669;51.428;21.162;2023-05-10T04:20:36;5.90;99.90
44886;DHT22;36669;51.428;21.162;2023-05-10T04:23:03;6.00;99.90
44886;DHT22;36669;51.428;21.162;2023-05-10T04:25:30;6.10;99.90
44886;DHT22;36669;51.428;21.162;2023-05-10T04:27:56;6.10;99.90
44886;DHT22;36669;51.428;21.162;2023-05-10T04:30:23;6.20;99.90
44886;DHT22;36669;51.428;21.162;2023-05-10T04:32:50;6.30;99.90
44886;DHT22;36669;51.428;21.162;2023-05-10T04:35:17;6.40;99.90
44886;DHT22;36669;51.428;21.162;2023-05-10T04:37:43;6.50;99.90
44886;DHT22;36669;51.428;21.162;2023-05-10T04:40:10;6.70;99.90
44886;DHT22;36669;51.428;21.162;2023-05-10T04:42:36;6.80;99.90
44886;DHT22;36669;51.428;21.162;2023-05-10T04:45:03;7.00;99.90
44886;DHT22;36669;51.428;21.162;2023-05-10T04:47:28;7.10;99.90
44886;DHT22;36669;51.428;21.162;2023-05-10T04:49:54;7.20;99.90
44886;DHT22;36669;51.428;21.162;2023-05-10T04:52:21;7.40;99.90
44886;DHT22;36669;51.428;21.162;2023-05-10T04:54:46;7.60;99.90
44886;DHT22;36669;51.428;21.162;2023-05-10T04:57:12;7.70;99.90
44886;DHT22;36669;51.428;21.162;2023-05-10T04:59:40;7.80;99.90
44886;DHT22;36669;51.428;21.162;2023-05-10T05:02:09;8.00;99.90
44886;DHT22;36669;51.428;21.162;2023-05-10T05:04:38;8.10;99.90
44886;DHT22;36669;51.428;21.162;2023-05-10T05:07:04;8.30;99.90
44886;DHT22;36669;51.428;21.162;2023-05-10T05:09:31;8.40;99.90
44886;DHT22;36669;51.428;21.162;2023-05-10T05:11:57;8.50;99.90
44886;DHT22;36669;51.428;21.162;2023-05-10T05:14:23;8.60;99.90
44886;DHT22;36669;51.428;21.162;2023-05-10T05:16:52;8.70;99.90
44886;DHT22;36669;51.428;21.162;2023-05-10T05:19:17;8.90;99.90
44886;DHT22;36669;51.428;21.162;2023-05-10T05:21:44;8.90;99.90
44886;DHT22;36669;51.428;21.162;2023-05-10T05:24:11;9.00;99.90
44886;DHT22;36669;51.428;21.162;2023-05-10T05:26:38;9.00;99.90
44886;DHT22;36669;51.428;21.162;2023-05-10T05:29:05;9.10;99.90
44886;DHT22;36669;51.428;21.162;2023-05-10T05:31:30;9.20;99.90
44886;DHT22;36669;51.428;21.162;2023-05-10T05:33:58;9.30;99.90
44886;DHT22;36669;51.428;21.162;2023-05-10T05:36:23;9.40;99.90
44886;DHT22;36669;51.428;21.162;2023-05-10T05:38:51;9.50;99.90
44886;DHT22;36669;51.428;21.162;2023-05-10T05:41:18;9.60;99.90
44886;DHT22;36669;51.428;21.162;2023-05-10T05:43:44;9.70;99.90
44886;DHT22;36669;51.428;21.162;2023-05-10T05:46:10;9.80;99.90
44886;DHT22;36669;51.428;21.162;2023-05-10T05:48:37;9.90;99.90
44886;DHT22;36669;51.428;21.162;2023-05-10T05:51:03;10.00;99.90
44886;DHT22;36669;51.428;21.162;2023-05-10T05:53:29;10.10;99.90
44886;DHT22;36669;51.428;21.162;2023-05-10T05:55:57;10.20;99.90
44886;DHT22;36669;51.428;21.162;2023-05-10T05:58:25;10.30;99.90
44886;DHT22;36669;51.428;21.162;2023-05-10T06:00:51;10.40;99.90
44886;DHT22;36669;51.428;21.162;2023-05-10T06:03:21;10.50;99.90
44886;DHT22;36669;51.428;21.162;2023-05-10T06:05:47;10.60;99.90
44886;DHT22;36669;51.428;21.162;2023-05-10T06:08:15;10.70;99.90
44886;DHT22;36669;51.428;21.162;2023-05-10T06:10:42;10.70;99.90
44886;DHT22;36669;51.428;21.162;2023-05-10T06:13:08;10.80;99.90
44886;DHT22;36669;51.428;21.162;2023-05-10T06:15:35;10.90;99.90
44886;DHT22;36669;51.428;21.162;2023-05-10T06:18:02;10.90;99.90
44886;DHT22;36669;51.428;21.162;2023-05-10T06:20:27;11.00;99.90
44886;DHT22;36669;51.428;21.162;2023-05-10T06:22:54;11.10;99.90
44886;DHT22;36669;51.428;21.162;2023-05-10T06:25:21;11.20;99.90
44886;DHT22;36669;51.428;21.162;2023-05-10T06:27:48;11.30;99.90
44886;DHT22;36669;51.428;21.162;2023-05-10T06:30:14;11.30;99.90
44886;DHT22;36669;51.428;21.162;2023-05-10T06:32:40;11.40;99.90
44886;DHT22;36669;51.428;21.162;2023-05-10T06:35:06;11.60;99.90
44886;DHT22;36669;51.428;21.162;2023-05-10T06:37:33;11.70;99.90
44886;DHT22;36669;51.428;21.162;2023-05-10T06:40:01;11.80;99.90
44886;DHT22;36669;51.428;21.162;2023-05-10T06:42:27;11.90;99.90
44886;DHT22;36669;51.428;21.162;2023-05-10T06:44:54;12.00;99.90
44886;DHT22;36669;51.428;21.162;2023-05-10T06:47:19;12.10;99.90
44886;DHT22;36669;51.428;21.162;2023-05-10T06:49:46;12.20;99.90
44886;DHT22;36669;51.428;21.162;2023-05-10T06:52:13;12.30;99.90
44886;DHT22;36669;51.428;21.162;2023-05-10T06:54:40;12.40;99.90
44886;DHT22;36669;51.428;21.162;2023-05-10T06:57:07;12.50;99.90
44886;DHT22;36669;51.428;21.162;2023-05-10T06:59:33;12.50;99.90
44886;DHT22;36669;51.428;21.162;2023-05-10T07:02:00;12.60;99.90
44886;DHT22;36669;51.428;21.162;2023-05-10T07:04:26;12.80;99.90
44886;DHT22;36669;51.428;21.162;2023-05-10T07:06:53;12.90;99.70
44886;DHT22;36669;51.428;21.162;2023-05-10T07:09:20;12.90;97.00
44886;DHT22;36669;51.428;21.162;2023-05-10T07:11:46;13.00;95.40
44886;DHT22;36669;51.428;21.162;2023-05-10T07:14:12;13.10;93.80
44886;DHT22;36669;51.428;21.162;2023-05-10T07:16:39;13.10;93.10
44886;DHT22;36669;51.428;21.162;2023-05-10T07:19:06;13.30;93.10
44886;DHT22;36669;51.428;21.162;2023-05-10T07:21:31;13.40;90.80
44886;DHT22;36669;51.428;21.162;2023-05-10T07:23:58;13.30;87.30
44886;DHT22;36669;51.428;21.162;2023-05-10T07:26:26;13.30;84.90
44886;DHT22;36669;51.428;21.162;2023-05-10T07:28:53;13.30;83.90
44886;DHT22;36669;51.428;21.162;2023-05-10T07:31:19;13.40;82.80
44886;DHT22;36669;51.428;21.162;2023-05-10T07:33:45;13.50;83.60
44886;DHT22;36669;51.428;21.162;2023-05-10T07:36:13;13.50;82.40
44886;DHT22;36669;51.428;21.162;2023-05-10T07:38:40;13.60;79.90
44886;DHT22;36669;51.428;21.162;2023-05-10T07:41:07;13.70;79.20
44886;DHT22;36669;51.428;21.162;2023-05-10T07:43:34;13.70;75.30
44886;DHT22;36669;51.428;21.162;2023-05-10T07:46:00;13.70;73.40
44886;DHT22;36669;51.428;21.162;2023-05-10T07:48:27;13.70;72.30
44886;DHT22;36669;51.428;21.162;2023-05-10T07:50:54;13.70;72.10
44886;DHT22;36669;51.428;21.162;2023-05-10T07:53:20;13.80;70.40
44886;DHT22;36669;51.428;21.162;2023-05-10T07:55:50;13.90;69.70
44886;DHT22;36669;51.428;21.162;2023-05-10T07:58:15;13.90;70.00
44886;DHT22;36669;51.428;21.162;2023-05-10T08:00:41;13.90;69.70
44886;DHT22;36669;51.428;21.162;2023-05-10T08:03:06;14.00;69.50
44886;DHT22;36669;51.428;21.162;2023-05-10T08:05:33;13.90;70.20
44886;DHT22;36669;51.428;21.162;2023-05-10T08:08:00;14.00;70.60
44886;DHT22;36669;51.428;21.162;2023-05-10T08:10:27;14.10;69.90
44886;DHT22;36669;51.428;21.162;2023-05-10T08:12:53;14.10;70.90
44886;DHT22;36669;51.428;21.162;2023-05-10T08:15:19;14.20;70.40
44886;DHT22;36669;51.428;21.162;2023-05-10T08:17:46;14.20;69.00
44886;DHT22;36669;51.428;21.162;2023-05-10T08:20:11;14.30;67.00
44886;DHT22;36669;51.428;21.162;2023-05-10T08:22:39;14.40;67.00
44886;DHT22;36669;51.428;21.162;2023-05-10T08:25:06;14.40;66.30
44886;DHT22;36669;51.428;21.162;2023-05-10T08:27:31;14.50;63.40
44886;DHT22;36669;51.428;21.162;2023-05-10T08:29:58;14.60;64.50
44886;DHT22;36669;51.428;21.162;2023-05-10T08:32:25;14.60;63.10
44886;DHT22;36669;51.428;21.162;2023-05-10T08:34:52;14.60;64.30
44886;DHT22;36669;51.428;21.162;2023-05-10T08:37:18;14.70;64.50
44886;DHT22;36669;51.428;21.162;2023-05-10T08:39:45;14.70;63.70
44886;DHT22;36669;51.428;21.162;2023-05-10T08:42:13;14.80;63.90
44886;DHT22;36669;51.428;21.162;2023-05-10T08:44:43;14.70;60.90
44886;DHT22;36669;51.428;21.162;2023-05-10T08:47:10;14.80;60.70
44886;DHT22;36669;51.428;21.162;2023-05-10T08:49:36;14.70;59.20
44886;DHT22;36669;51.428;21.162;2023-05-10T08:52:04;14.70;60.10
44886;DHT22;36669;51.428;21.162;2023-05-10T08:54:41;14.80;60.90
44886;DHT22;36669;51.428;21.162;2023-05-10T08:57:09;14.70;60.60
44886;DHT22;36669;51.428;21.162;2023-05-10T08:59:36;14.90;61.00
44886;DHT22;36669;51.428;21.162;2023-05-10T09:02:06;14.80;62.00
44886;DHT22;36669;51.428;21.162;2023-05-10T09:04:45;14.80;62.40
44886;DHT22;36669;51.428;21.162;2023-05-10T09:07:12;15.00;63.20
44886;DHT22;36669;51.428;21.162;2023-05-10T09:09:39;15.10;62.30
44886;DHT22;36669;51.428;21.162;2023-05-10T09:12:05;15.20;63.80
44886;DHT22;36669;51.428;21.162;2023-05-10T09:14:34;15.20;62.60
44886;DHT22;36669;51.428;21.162;2023-05-10T09:17:00;15.30;62.40
44886;DHT22;36669;51.428;21.162;2023-05-10T09:19:27;15.20;62.50
44886;DHT22;36669;51.428;21.162;2023-05-10T09:21:57;15.20;62.10
44886;DHT22;36669;51.428;21.162;2023-05-10T09:24:26;15.20;62.30
44886;DHT22;36669;51.428;21.162;2023-05-10T09:27:06;15.40;63.90
44886;DHT22;36669;51.428;21.162;2023-05-10T09:29:42;15.40;62.10
44886;DHT22;36669;51.428;21.162;2023-05-10T09:32:10;15.40;60.60
44886;DHT22;36669;51.428;21.162;2023-05-10T09:34:36;15.50;60.80
44886;DHT22;36669;51.428;21.162;2023-05-10T09:37:07;15.50;60.90
44886;DHT22;36669;51.428;21.162;2023-05-10T09:39:36;15.30;58.90
44886;DHT22;36669;51.428;21.162;2023-05-10T09:42:06;15.50;59.10
44886;DHT22;36669;51.428;21.162;2023-05-10T09:44:33;15.60;60.00
44886;DHT22;36669;51.428;21.162;2023-05-10T09:47:03;15.70;60.30
44886;DHT22;36669;51.428;21.162;2023-05-10T09:49:29;15.70;59.60
44886;DHT22;36669;51.428;21.162;2023-05-10T09:52:03;15.70;58.90
44886;DHT22;36669;51.428;21.162;2023-05-10T09:54:31;15.70;57.80
44886;DHT22;36669;51.428;21.162;2023-05-10T09:56:58;15.90;58.40
44886;DHT22;36669;51.428;21.162;2023-05-10T09:59:27;16.00;59.30
44886;DHT22;36669;51.428;21.162;2023-05-10T10:01:59;16.00;60.00
44886;DHT22;36669;51.428;21.162;2023-05-10T10:04:26;16.10;58.60
44886;DHT22;36669;51.428;21.162;2023-05-10T10:07:02;16.30;58.60
44886;DHT22;36669;51.428;21.162;2023-05-10T10:09:30;16.30;57.90
44886;DHT22;36669;51.428;21.162;2023-05-10T10:11:57;16.40;58.10
44886;DHT22;36669;51.428;21.162;2023-05-10T10:14:23;16.50;56.20
44886;DHT22;36669;51.428;21.162;2023-05-10T10:16:51;16.60;57.00
44886;DHT22;36669;51.428;21.162;2023-05-10T10:19:20;16.60;56.80
44886;DHT22;36669;51.428;21.162;2023-05-10T10:21:48;16.60;56.50
44886;DHT22;36669;51.428;21.162;2023-05-10T10:24:13;16.40;55.70
44886;DHT22;36669;51.428;21.162;2023-05-10T10:26:40;16.50;55.40
44886;DHT22;36669;51.428;21.162;2023-05-10T10:34:34;16.70;55.20
44886;DHT22;36669;51.428;21.162;2023-05-10T10:37:04;16.90;56.80
44886;DHT22;36669;51.428;21.162;2023-05-10T10:39:30;17.10;55.00
44886;DHT22;36669;51.428;21.162;2023-05-10T10:41:56;17.30;55.20
44886;DHT22;36669;51.428;21.162;2023-05-10T10:44:27;17.30;55.20
44886;DHT22;36669;51.428;21.162;2023-05-10T10:47:21;17.20;55.10
44886;DHT22;36669;51.428;21.162;2023-05-10T10:50:05;17.00;54.60
44886;DHT22;36669;51.428;21.162;2023-05-10T10:52:31;17.30;54.00
44886;DHT22;36669;51.428;21.162;2023-05-10T10:55:17;17.60;55.60
44886;DHT22;36669;51.428;21.162;2023-05-10T10:57:45;17.80;55.00
44886;DHT22;36669;51.428;21.162;2023-05-10T11:00:27;17.60;52.90
44886;DHT22;36669;51.428;21.162;2023-05-10T11:03:12;17.60;54.10
44886;DHT22;36669;51.428;21.162;2023-05-10T11:05:48;17.70;55.40
44886;DHT22;36669;51.428;21.162;2023-05-10T11:08:18;18.00;55.20
44886;DHT22;36669;51.428;21.162;2023-05-10T11:10:52;18.00;54.10
44886;DHT22;36669;51.428;21.162;2023-05-10T11:13:31;18.00;53.80
44886;DHT22;36669;51.428;21.162;2023-05-10T11:15:58;18.00;53.60
44886;DHT22;36669;51.428;21.162;2023-05-10T11:18:31;17.90;52.40
44886;DHT22;36669;51.428;21.162;2023-05-10T11:21:01;18.20;52.30
44886;DHT22;36669;51.428;21.162;2023-05-10T11:26:13;18.40;51.20
44886;DHT22;36669;51.428;21.162;2023-05-10T11:28:44;18.30;51.60
44886;DHT22;36669;51.428;21.162;2023-05-10T11:31:13;18.50;52.10
44886;DHT22;36669;51.428;21.162;2023-05-10T11:33:42;18.60;51.40
44886;DHT22;36669;51.428;21.162;2023-05-10T11:36:10;18.40;51.10
44886;DHT22;36669;51.428;21.162;2023-05-10T11:38:37;18.70;51.20
44886;DHT22;36669;51.428;21.162;2023-05-10T11:41:04;18.90;50.00
44886;DHT22;36669;51.428;21.162;2023-05-10T11:43:31;18.70;50.50
44886;DHT22;36669;51.428;21.162;2023-05-10T11:45:57;18.90;51.60
44886;DHT22;36669;51.428;21.162;2023-05-10T11:48:24;18.90;50.80
44886;DHT22;36669;51.428;21.162;2023-05-10T11:50:51;18.90;51.30
44886;DHT22;36669;51.428;21.162;2023-05-10T11:53:19;18.80;51.10
44886;DHT22;36669;51.428;21.162;2023-05-10T11:55:46;18.90;51.80
44886;DHT22;36669;51.428;21.162;2023-05-10T11:58:14;19.20;51.80
44886;DHT22;36669;51.428;21.162;2023-05-10T12:00:41;19.10;50.90
44886;DHT22;36669;51.428;21.162;2023-05-10T12:03:07;19.30;51.00
44886;DHT22;36669;51.428;21.162;2023-05-10T12:05:35;19.30;52.10
44886;DHT22;36669;51.428;21.162;2023-05-10T12:08:14;19.40;51.30
44886;DHT22;36669;51.428;21.162;2023-05-10T12:10:41;19.50;50.20
44886;DHT22;36669;51.428;21.162;2023-05-10T12:13:11;19.70;51.50
44886;DHT22;36669;51.428;21.162;2023-05-10T12:15:39;20.10;50.80
44886;DHT22;36669;51.428;21.162;2023-05-10T12:18:05;19.70;48.00
44886;DHT22;36669;51.428;21.162;2023-05-10T12:20:31;19.70;49.10
44886;DHT22;36669;51.428;21.162;2023-05-10T12:22:58;20.20;48.90
44886;DHT22;36669;51.428;21.162;2023-05-10T12:25:29;20.40;48.40
44886;DHT22;36669;51.428;21.162;2023-05-10T12:27:57;20.20;47.20
44886;DHT22;36669;51.428;21.162;2023-05-10T12:30:25;20.30;47.70
44886;DHT22;36669;51.428;21.162;2023-05-10T12:32:52;20.60;48.00
44886;DHT22;36669;51.428;21.162;2023-05-10T12:35:20;20.90;48.80
44886;DHT22;36669;51.428;21.162;2023-05-10T12:37:54;20.90;49.00
44886;DHT22;36669;51.428;21.162;2023-05-10T12:40:21;20.30;48.80
44886;DHT22;36669;51.428;21.162;2023-05-10T12:42:47;20.30;48.50
44886;DHT22;36669;51.428;21.162;2023-05-10T12:45:16;20.60;48.30
44886;DHT22;36669;51.428;21.162;2023-05-10T12:47:44;20.90;48.10
44886;DHT22;36669;51.428;21.162;2023-05-10T12:50:10;20.50;47.80
44886;DHT22;36669;51.428;21.162;2023-05-10T12:52:37;21.00;48.10
44886;DHT22;36669;51.428;21.162;2023-05-10T12:55:04;21.10;48.00
44886;DHT22;36669;51.428;21.162;2023-05-10T12:57:30;21.30;47.70
44886;DHT22;36669;51.428;21.162;2023-05-10T12:59:55;21.50;48.00
44886;DHT22;36669;51.428;21.162;2023-05-10T13:02:23;21.60;46.50
44886;DHT22;36669;51.428;21.162;2023-05-10T13:04:50;22.10;47.00
44886;DHT22;36669;51.428;21.162;2023-05-10T13:07:17;22.10;46.40
44886;DHT22;36669;51.428;21.162;2023-05-10T13:09:43;22.40;46.10
44886;DHT22;36669;51.428;21.162;2023-05-10T13:12:10;22.60;45.80
44886;DHT22;36669;51.428;21.162;2023-05-10T13:14:37;22.70;45.00
44886;DHT22;36669;51.428;21.162;2023-05-10T13:17:04;21.90;44.60
44886;DHT22;36669;51.428;21.162;2023-05-10T13:19:31;22.10;45.60
44886;DHT22;36669;51.428;21.162;2023-05-10T13:21:58;22.20;46.30
44886;DHT22;36669;51.428;21.162;2023-05-10T13:24:24;22.40;44.40
44886;DHT22;36669;51.428;21.162;2023-05-10T13:26:51;22.30;45.90
44886;DHT22;36669;51.428;21.162;2023-05-10T13:29:18;22.70;45.00
44886;DHT22;36669;51.428;21.162;2023-05-10T13:31:45;22.60;44.80
44886;DHT22;36669;51.428;21.162;2023-05-10T13:34:12;22.60;44.10
44886;DHT22;36669;51.428;21.162;2023-05-10T13:36:39;23.30;45.30
44886;DHT22;36669;51.428;21.162;2023-05-10T13:39:04;23.30;42.30
44886;DHT22;36669;51.428;21.162;2023-05-10T13:41:31;23.00;43.40
44886;DHT22;36669;51.428;21.162;2023-05-10T13:43:58;22.40;43.50
44886;DHT22;36669;51.428;21.162;2023-05-10T13:46:26;22.70;45.20
44886;DHT22;36669;51.428;21.162;2023-05-10T13:48:53;23.30;44.40
44886;DHT22;36669;51.428;21.162;2023-05-10T13:51:19;23.50;44.00
44886;DHT22;36669;51.428;21.162;2023-05-10T13:53:46;24.90;43.90
44886;DHT22;36669;51.428;21.162;2023-05-10T13:56:13;25.30;42.60
44886;DHT22;36669;51.428;21.162;2023-05-10T13:58:40;26.10;41.90
44886;DHT22;36669;51.428;21.162;2023-05-10T14:01:07;26.10;40.30
44886;DHT22;36669;51.428;21.162;2023-05-10T14:03:33;27.40;39.60
44886;DHT22;36669;51.428;21.162;2023-05-10T14:06:01;28.30;39.70
44886;DHT22;36669;51.428;21.162;2023-05-10T14:08:28;28.10;38.90
44886;DHT22;36669;51.428;21.162;2023-05-10T14:10:54;27.60;37.80
44886;DHT22;36669;51.428;21.162;2023-05-10T14:13:23;27.30;38.50
44886;DHT22;36669;51.428;21.162;2023-05-10T14:15:50;28.00;39.00
44886;DHT22;36669;51.428;21.162;2023-05-10T14:18:17;27.90;37.40
44886;DHT22;36669;51.428;21.162;2023-05-10T14:20:45;28.90;37.10
44886;DHT22;36669;51.428;21.162;2023-05-10T14:23:13;29.70;36.70
44886;DHT22;36669;51.428;21.162;2023-05-10T14:25:40;28.40;36.30
44886;DHT22;36669;51.428;21.162;2023-05-10T14:28:07;27.80;37.10
44886;DHT22;36669;51.428;21.162;2023-05-10T14:30:33;27.70;38.20
44886;DHT22;36669;51.428;21.162;2023-05-10T14:32:59;27.80;37.80
44886;DHT22;36669;51.428;21.162;2023-05-10T14:35:28;27.50;36.70
44886;DHT22;36669;51.428;21.162;2023-05-10T14:37:53;27.20;36.50
44886;DHT22;36669;51.428;21.162;2023-05-10T14:40:20;27.70;36.80
44886;DHT22;36669;51.428;21.162;2023-05-10T14:42:48;28.00;36.90
44886;DHT22;36669;51.428;21.162;2023-05-10T14:45:14;27.60;36.50
44886;DHT22;36669;51.428;21.162;2023-05-10T14:47:41;26.80;37.20
44886;DHT22;36669;51.428;21.162;2023-05-10T14:50:08;25.60;37.10
44886;DHT22;36669;51.428;21.162;2023-05-10T14:52:35;25.90;38.10
44886;DHT22;36669;51.428;21.162;2023-05-10T14:55:02;26.80;37.90
44886;DHT22;36669;51.428;21.162;2023-05-10T14:57:28;26.10;36.70
44886;DHT22;36669;51.428;21.162;2023-05-10T14:59:55;25.80;37.30
44886;DHT22;36669;51.428;21.162;2023-05-10T15:02:23;25.50;37.90
44886;DHT22;36669;51.428;21.162;2023-05-10T15:04:50;25.90;37.80
44886;DHT22;36669;51.428;21.162;2023-05-10T15:07:17;26.20;37.30
44886;DHT22;36669;51.428;21.162;2023-05-10T15:09:45;25.50;36.70
44886;DHT22;36669;51.428;21.162;2023-05-10T15:12:10;25.40;37.50
44886;DHT22;36669;51.428;21.162;2023-05-10T15:14:36;25.70;37.40
44886;DHT22;36669;51.428;21.162;2023-05-10T15:17:05;25.30;37.20
44886;DHT22;36669;51.428;21.162;2023-05-10T15:19:32;25.30;37.50
44886;DHT22;36669;51.428;21.162;2023-05-10T15:22:00;25.30;37.80
44886;DHT22;36669;51.428;21.162;2023-05-10T15:24:26;25.80;37.80
44886;DHT22;36669;51.428;21.162;2023-05-10T15:26:54;26.40;37.70
44886;DHT22;36669;51.428;21.162;2023-05-10T15:29:20;25.20;37.00
44886;DHT22;36669;51.428;21.162;2023-05-10T15:31:47;24.70;38.60
44886;DHT22;36669;51.428;21.162;2023-05-10T15:34:14;24.20;39.10
44886;DHT22;36669;51.428;21.162;2023-05-10T15:36:41;23.70;39.80
44886;DHT22;36669;51.428;21.162;2023-05-10T15:39:08;23.90;39.50
44886;DHT22;36669;51.428;21.162;2023-05-10T15:41:36;24.20;39.80
44886;DHT22;36669;51.428;21.162;2023-05-10T15:44:03;24.50;39.80